sensor_id;sensor_type;location;lat;lon;timestamp;temperature;humidity
26964;DHT22;14521;48.148;-1.656;2023-04-25T00:00:09;19.80;81.10
26964;DHT22;14521;48.148;-1.656;2023-04-25T00:03:34;19.80;81.10
26964;DHT22;14521;48.148;-1.656;2023-04-25T00:06:57;19.80;81.10
26964;DHT22;14521;48.148;-1.656;2023-04-25T00:10:23;19.80;81.00
26964;DHT22;14521;48.148;-1.656;2023-04-25T00:13:45;19.80;81.10
26964;DHT22;14521;48.148;-1.656;2023-04-25T00:17:08;19.80;81.00
26964;DHT22;14521;48.148;-1.656;2023-04-25T00:20:31;19.80;80.90
26964;DHT22;14521;48.148;-1.656;2023-04-25T00:23:53;19.80;80.90
26964;DHT22;14521;48.148;-1.656;2023-04-25T00:27:15;19.80;80.90
26964;DHT22;14521;48.148;-1.656;2023-04-25T00:30:38;19.80;80.90
26964;DHT22;14521;48.148;-1.656;2023-04-25T00:34:01;19.80;81.70
26964;DHT22;14521;48.148;-1.656;2023-04-25T00:37:23;19.80;80.80
26964;DHT22;14521;48.148;-1.656;2023-04-25T00:40:46;19.80;80.80
26964;DHT22;14521;48.148;-1.656;2023-04-25T00:44:09;19.70;80.70
26964;DHT22;14521;48.148;-1.656;2023-04-25T00:47:33;19.70;80.70
26964;DHT22;14521;48.148;-1.656;2023-04-25T00:50:58;19.70;80.60
26964;DHT22;14521;48.148;-1.656;2023-04-25T00:54:21;19.70;80.70
26964;DHT22;14521;48.148;-1.656;2023-04-25T00:57:43;19.70;80.60
26964;DHT22;14521;48.148;-1.656;2023-04-25T01:01:06;19.70;80.50
26964;DHT22;14521;48.148;-1.656;2023-04-25T01:04:28;19.70;80.50
26964;DHT22;14521;48.148;-1.656;2023-04-25T01:07:51;19.70;80.50
26964;DHT22;14521;48.148;-1.656;2023-04-25T01:11:14;19.70;80.50
26964;DHT22;14521;48.148;-1.656;2023-04-25T01:14:36;19.70;80.40
26964;DHT22;14521;48.148;-1.656;2023-04-25T01:18:00;19.70;80.30
26964;DHT22;14521;48.148;-1.656;2023-04-25T01:21:23;19.70;80.20
26964;DHT22;14521;48.148;-1.656;2023-04-25T01:24:48;19.70;80.30
26964;DHT22;14521;48.148;-1.656;2023-04-25T01:28:11;19.60;80.40
26964;DHT22;14521;48.148;-1.656;2023-04-25T01:31:34;19.60;80.50
26964;DHT22;14521;48.148;-1.656;2023-04-25T01:34:57;19.60;80.50
26964;DHT22;14521;48.148;-1.656;2023-04-25T01:38:20;19.60;80.50
26964;DHT22;14521;48.148;-1.656;2023-04-25T01:41:44;19.60;80.40
26964;DHT22;14521;48.148;-1.656;2023-04-25T01:45:07;19.60;80.30
26964;DHT22;14521;48.148;-1.656;2023-04-25T01:48:30;19.60;80.20
26964;DHT22;14521;48.148;-1.656;2023-04-25T01:51:53;19.60;80.20
26964;DHT22;14521;48.148;-1.656;2023-04-25T01:55:16;19.60;80.10
26964;DHT22;14521;48.148;-1.656;2023-04-25T01:58:48;19.60;80.00
26964;DHT22;14521;48.148;-1.656;2023-04-25T02:02:10;19.60;80.00
26964;DHT22;14521;48.148;-1.656;2023-04-25T02:05:37;19.60;80.00
26964;DHT22;14521;48.148;-1.656;2023-04-25T02:09:02;19.50;79.90
26964;DHT22;14521;48.148;-1.656;2023-04-25T02:12:24;19.60;79.90
26964;DHT22;14521;48.148;-1.656;2023-04-25T02:16:06;19.60;79.90
26964;DHT22;14521;48.148;-1.656;2023-04-25T02:19:32;19.60;79.80
26964;DHT22;14521;48.148;-1.656;2023-04-25T02:22:55;19.50;79.70
26964;DHT22;14521;48.148;-1.656;2023-04-25T02:26:17;19.50;79.60
26964;DHT22;14521;48.148;-1.656;2023-04-25T02:29:40;19.50;79.60
26964;DHT22;14521;48.148;-1.656;2023-04-25T02:33:05;19.50;79.50
26964;DHT22;14521;48.148;-1.656;2023-04-25T02:36:28;19.50;79.50
26964;DHT22;14521;48.148;-1.656;2023-04-25T02:39:52;19.50;79.40
26964;DHT22;14521;48.148;-1.656;2023-04-25T02:43:14;19.50;79.40
26964;DHT22;14521;48.148;-1.656;2023-04-25T02:46:38;19.50;79.30
26964;DHT22;14521;48.148;-1.656;2023-04-25T02:50:01;19.50;79.30
26964;DHT22;14521;48.148;-1.656;2023-04-25T02:53:23;19.50;79.20
26964;DHT22;14521;48.148;-1.656;2023-04-25T02:56:48;19.50;79.20
26964;DHT22;14521;48.148;-1.656;2023-04-25T03:00:16;19.50;79.20
26964;DHT22;14521;48.148;-1.656;2023-04-25T03:03:39;19.50;79.10
26964;DHT22;14521;48.148;-1.656;2023-04-25T03:07:01;19.50;79.10
26964;DHT22;14521;48.148;-1.656;2023-04-25T03:10:24;19.50;79.10
26964;DHT22;14521;48.148;-1.656;2023-04-25T03:13:46;19.40;79.00
26964;DHT22;14521;48.148;-1.656;2023-04-25T03:17:08;19.40;78.90
26964;DHT22;14521;48.148;-1.656;2023-04-25T03:20:31;19.40;78.90
26964;DHT22;14521;48.148;-1.656;2023-04-25T03:23:53;19.50;78.90
26964;DHT22;14521;48.148;-1.656;2023-04-25T03:27:16;19.50;78.90
26964;DHT22;14521;48.148;-1.656;2023-04-25T03:30:38;19.40;78.80
26964;DHT22;14521;48.148;-1.656;2023-04-25T03:34:01;19.40;78.80
26964;DHT22;14521;48.148;-1.656;2023-04-25T03:37:23;19.40;78.80
26964;DHT22;14521;48.148;-1.656;2023-04-25T03:40:45;19.40;78.80
26964;DHT22;14521;48.148;-1.656;2023-04-25T03:44:29;19.40;78.80
26964;DHT22;14521;48.148;-1.656;2023-04-25T03:47:52;19.40;78.80
26964;DHT22;14521;48.148;-1.656;2023-04-25T03:51:14;19.40;78.80
26964;DHT22;14521;48.148;-1.656;2023-04-25T03:54:39;19.40;78.70
26964;DHT22;14521;48.148;-1.656;2023-04-25T03:58:08;19.40;78.60
26964;DHT22;14521;48.148;-1.656;2023-04-25T04:01:32;19.40;79.40
26964;DHT22;14521;48.148;-1.656;2023-04-25T04:04:54;19.40;78.50
26964;DHT22;14521;48.148;-1.656;2023-04-25T04:08:18;19.40;78.50
26964;DHT22;14521;48.148;-1.656;2023-04-25T04:11:41;19.40;78.50
26964;DHT22;14521;48.148;-1.656;2023-04-25T04:15:05;19.40;78.50
26964;DHT22;14521;48.148;-1.656;2023-04-25T04:18:28;19.40;78.50
26964;DHT22;14521;48.148;-1.656;2023-04-25T04:21:51;19.30;78.40
26964;DHT22;14521;48.148;-1.656;2023-04-25T04:25:14;19.40;78.40
26964;DHT22;14521;48.148;-1.656;2023-04-25T04:28:54;19.40;78.40
26964;DHT22;14521;48.148;-1.656;2023-04-25T04:32:25;19.30;78.30
26964;DHT22;14521;48.148;-1.656;2023-04-25T04:35:51;19.30;78.30
26964;DHT22;14521;48.148;-1.656;2023-04-25T04:39:14;19.30;78.30
26964;DHT22;14521;48.148;-1.656;2023-04-25T04:42:49;19.30;78.30
26964;DHT22;14521;48.148;-1.656;2023-04-25T04:46:40;19.30;78.30
26964;DHT22;14521;48.148;-1.656;2023-04-25T04:50:34;19.30;78.30
26964;DHT22;14521;48.148;-1.656;2023-04-25T04:54:23;19.30;78.30
26964;DHT22;14521;48.148;-1.656;2023-04-25T04:58:08;19.30;78.30
26964;DHT22;14521;48.148;-1.656;2023-04-25T05:01:40;19.30;78.20
26964;DHT22;14521;48.148;-1.656;2023-04-25T05:05:23;19.30;78.20
26964;DHT22;14521;48.148;-1.656;2023-04-25T05:09:13;19.20;78.20
26964;DHT22;14521;48.148;-1.656;2023-04-25T05:12:56;19.30;78.30
26964;DHT22;14521;48.148;-1.656;2023-04-25T05:16:38;19.30;78.40
26964;DHT22;14521;48.148;-1.656;2023-04-25T05:20:27;19.30;78.50
26964;DHT22;14521;48.148;-1.656;2023-04-25T05:24:17;19.30;78.70
26964;DHT22;14521;48.148;-1.656;2023-04-25T05:27:59;19.30;78.90
26964;DHT22;14521;48.148;-1.656;2023-04-25T05:31:40;19.30;79.20
26964;DHT22;14521;48.148;-1.656;2023-04-25T05:35:06;19.40;78.90
26964;DHT22;14521;48.148;-1.656;2023-04-25T05:38:36;19.50;78.70
26964;DHT22;14521;48.148;-1.656;2023-04-25T05:42:16;19.50;78.90
26964;DHT22;14521;48.148;-1.656;2023-04-25T05:45:44;19.50;78.90
26964;DHT22;14521;48.148;-1.656;2023-04-25T05:49:45;19.50;79.00
26964;DHT22;14521;48.148;-1.656;2023-04-25T05:53:21;19.50;79.10
26964;DHT22;14521;48.148;-1.656;2023-04-25T05:56:50;19.50;79.00
26964;DHT22;14521;48.148;-1.656;2023-04-25T06:00:13;19.50;78.30
26964;DHT22;14521;48.148;-1.656;2023-04-25T06:03:41;19.40;79.50
26964;DHT22;14521;48.148;-1.656;2023-04-25T06:07:05;19.30;79.00
26964;DHT22;14521;48.148;-1.656;2023-04-25T06:10:28;19.40;79.80
26964;DHT22;14521;48.148;-1.656;2023-04-25T06:13:50;19.40;79.80
26964;DHT22;14521;48.148;-1.656;2023-04-25T06:17:13;19.50;79.70
26964;DHT22;14521;48.148;-1.656;2023-04-25T06:20:35;19.50;79.30
26964;DHT22;14521;48.148;-1.656;2023-04-25T06:23:58;19.50;80.00
26964;DHT22;14521;48.148;-1.656;2023-04-25T06:27:20;19.50;79.70
26964;DHT22;14521;48.148;-1.656;2023-04-25T06:30:42;19.50;79.20
26964;DHT22;14521;48.148;-1.656;2023-04-25T06:34:09;19.50;79.20
26964;DHT22;14521;48.148;-1.656;2023-04-25T06:37:34;19.50;80.10
26964;DHT22;14521;48.148;-1.656;2023-04-25T06:40:57;19.60;79.70
26964;DHT22;14521;48.148;-1.656;2023-04-25T06:44:20;19.70;79.70
26964;DHT22;14521;48.148;-1.656;2023-04-25T06:47:47;19.70;79.60
26964;DHT22;14521;48.148;-1.656;2023-04-25T06:51:09;19.80;80.50
26964;DHT22;14521;48.148;-1.656;2023-04-25T06:54:33;19.90;79.30
26964;DHT22;14521;48.148;-1.656;2023-04-25T06:58:03;19.90;79.20
26964;DHT22;14521;48.148;-1.656;2023-04-25T07:01:46;19.90;79.30
26964;DHT22;14521;48.148;-1.656;2023-04-25T07:05:12;19.90;79.80
26964;DHT22;14521;48.148;-1.656;2023-04-25T07:08:35;19.90;79.80
26964;DHT22;14521;48.148;-1.656;2023-04-25T07:11:57;19.90;79.80
26964;DHT22;14521;48.148;-1.656;2023-04-25T07:15:19;20.00;79.70
26964;DHT22;14521;48.148;-1.656;2023-04-25T07:18:43;20.00;79.60
26964;DHT22;14521;48.148;-1.656;2023-04-25T07:22:06;20.10;79.30
26964;DHT22;14521;48.148;-1.656;2023-04-25T07:25:31;20.20;79.40
26964;DHT22;14521;48.148;-1.656;2023-04-25T07:28:57;20.30;78.40
26964;DHT22;14521;48.148;-1.656;2023-04-25T07:32:19;20.30;78.30
26964;DHT22;14521;48.148;-1.656;2023-04-25T07:35:42;20.30;78.20
26964;DHT22;14521;48.148;-1.656;2023-04-25T07:39:05;20.30;78.30
26964;DHT22;14521;48.148;-1.656;2023-04-25T07:42:28;20.30;78.40
26964;DHT22;14521;48.148;-1.656;2023-04-25T07:45:51;20.30;78.40
26964;DHT22;14521;48.148;-1.656;2023-04-25T07:49:14;20.30;78.40
26964;DHT22;14521;48.148;-1.656;2023-04-25T07:52:39;20.30;78.20
26964;DHT22;14521;48.148;-1.656;2023-04-25T07:56:10;20.30;78.10
26964;DHT22;14521;48.148;-1.656;2023-04-25T07:59:35;20.30;78.40
26964;DHT22;14521;48.148;-1.656;2023-04-25T08:02:59;20.30;78.10
26964;DHT22;14521;48.148;-1.656;2023-04-25T08:06:21;20.40;77.90
26964;DHT22;14521;48.148;-1.656;2023-04-25T08:09:54;20.40;78.50
26964;DHT22;14521;48.148;-1.656;2023-04-25T08:13:21;20.40;80.70
26964;DHT22;14521;48.148;-1.656;2023-04-25T08:16:44;20.30;81.50
26964;DHT22;14521;48.148;-1.656;2023-04-25T08:20:07;20.40;81.20
26964;DHT22;14521;48.148;-1.656;2023-04-25T08:23:31;20.30;81.00
26964;DHT22;14521;48.148;-1.656;2023-04-25T08:26:58;20.10;81.40
26964;DHT22;14521;48.148;-1.656;2023-04-25T08:30:23;20.10;81.10
26964;DHT22;14521;48.148;-1.656;2023-04-25T08:33:46;20.00;81.20
26964;DHT22;14521;48.148;-1.656;2023-04-25T08:37:30;20.00;81.10
26964;DHT22;14521;48.148;-1.656;2023-04-25T08:41:03;20.00;81.20
26964;DHT22;14521;48.148;-1.656;2023-04-25T08:44:27;19.90;81.40
26964;DHT22;14521;48.148;-1.656;2023-04-25T08:47:51;19.90;81.40
26964;DHT22;14521;48.148;-1.656;2023-04-25T08:51:21;19.90;81.20
26964;DHT22;14521;48.148;-1.656;2023-04-25T08:54:45;19.90;81.30
26964;DHT22;14521;48.148;-1.656;2023-04-25T08:58:11;19.90;81.10
26964;DHT22;14521;48.148;-1.656;2023-04-25T09:01:34;19.90;81.10
26964;DHT22;14521;48.148;-1.656;2023-04-25T09:05:00;19.90;81.10
26964;DHT22;14521;48.148;-1.656;2023-04-25T09:08:23;19.90;81.90
26964;DHT22;14521;48.148;-1.656;2023-04-25T09:11:47;19.90;81.00
26964;DHT22;14521;48.148;-1.656;2023-04-25T09:15:13;19.90;81.10
26964;DHT22;14521;48.148;-1.656;2023-04-25T09:19:05;19.90;81.00
26964;DHT22;14521;48.148;-1.656;2023-04-25T09:22:28;19.90;80.80
26964;DHT22;14521;48.148;-1.656;2023-04-25T09:25:53;19.90;80.90
26964;DHT22;14521;48.148;-1.656;2023-04-25T09:29:16;19.90;80.80
26964;DHT22;14521;48.148;-1.656;2023-04-25T09:32:38;19.90;80.80
26964;DHT22;14521;48.148;-1.656;2023-04-25T09:36:06;19.80;80.80
26964;DHT22;14521;48.148;-1.656;2023-04-25T09:39:53;19.80;80.70
26964;DHT22;14521;48.148;-1.656;2023-04-25T09:43:23;19.80;80.70
26964;DHT22;14521;48.148;-1.656;2023-04-25T09:46:49;19.80;80.80
26964;DHT22;14521;48.148;-1.656;2023-04-25T09:50:18;19.80;80.80
26964;DHT22;14521;48.148;-1.656;2023-04-25T09:53:47;19.80;80.80
26964;DHT22;14521;48.148;-1.656;2023-04-25T09:57:35;19.80;81.50
26964;DHT22;14521;48.148;-1.656;2023-04-25T10:01:11;19.80;80.90
26964;DHT22;14521;48.148;-1.656;2023-04-25T10:04:52;19.80;80.70
26964;DHT22;14521;48.148;-1.656;2023-04-25T10:08:22;19.80;80.80
26964;DHT22;14521;48.148;-1.656;2023-04-25T10:11:46;19.80;80.70
26964;DHT22;14521;48.148;-1.656;2023-04-25T10:15:10;19.80;80.40
26964;DHT22;14521;48.148;-1.656;2023-04-25T10:18:34;19.80;80.60
26964;DHT22;14521;48.148;-1.656;2023-04-25T10:22:13;19.80;80.70
26964;DHT22;14521;48.148;-1.656;2023-04-25T10:25:37;19.80;80.60
26964;DHT22;14521;48.148;-1.656;2023-04-25T10:29:01;19.80;80.70
26964;DHT22;14521;48.148;-1.656;2023-04-25T10:32:24;19.80;80.60
26964;DHT22;14521;48.148;-1.656;2023-04-25T10:35:47;19.80;80.30
26964;DHT22;14521;48.148;-1.656;2023-04-25T10:39:09;19.80;80.20
26964;DHT22;14521;48.148;-1.656;2023-04-25T10:42:31;19.80;80.10
26964;DHT22;14521;48.148;-1.656;2023-04-25T10:45:54;19.90;80.60
26964;DHT22;14521;48.148;-1.656;2023-04-25T10:49:42;19.90;79.90
26964;DHT22;14521;48.148;-1.656;2023-04-25T10:53:14;20.10;79.20
26964;DHT22;14521;48.148;-1.656;2023-04-25T10:56:42;20.20;78.30
26964;DHT22;14521;48.148;-1.656;2023-04-25T11:03:41;20.30;79.40
26964;DHT22;14521;48.148;-1.656;2023-04-25T11:07:10;20.30;81.00
26964;DHT22;14521;48.148;-1.656;2023-04-25T11:10:35;20.30;81.50
26964;DHT22;14521;48.148;-1.656;2023-04-25T11:13:58;20.30;81.30
26964;DHT22;14521;48.148;-1.656;2023-04-25T11:17:20;20.30;80.30
26964;DHT22;14521;48.148;-1.656;2023-04-25T11:20:43;20.30;80.30
26964;DHT22;14521;48.148;-1.656;2023-04-25T11:24:05;20.20;80.70
26964;DHT22;14521;48.148;-1.656;2023-04-25T11:27:28;20.20;80.60
26964;DHT22;14521;48.148;-1.656;2023-04-25T11:30:50;20.10;80.60
26964;DHT22;14521;48.148;-1.656;2023-04-25T11:34:19;20.10;80.70
26964;DHT22;14521;48.148;-1.656;2023-04-25T11:37:43;20.10;80.90
26964;DHT22;14521;48.148;-1.656;2023-04-25T11:41:06;20.00;80.80
26964;DHT22;14521;48.148;-1.656;2023-04-25T11:44:28;20.00;80.80
26964;DHT22;14521;48.148;-1.656;2023-04-25T11:47:50;20.00;80.80
26964;DHT22;14521;48.148;-1.656;2023-04-25T11:51:13;20.00;80.80
26964;DHT22;14521;48.148;-1.656;2023-04-25T11:54:37;20.00;80.80
26964;DHT22;14521;48.148;-1.656;2023-04-25T11:58:00;20.00;80.90
26964;DHT22;14521;48.148;-1.656;2023-04-25T12:01:27;20.00;80.70
26964;DHT22;14521;48.148;-1.656;2023-04-25T12:04:59;20.00;80.80
26964;DHT22;14521;48.148;-1.656;2023-04-25T12:09:08;20.00;80.30
26964;DHT22;14521;48.148;-1.656;2023-04-25T12:12:35;19.80;80.00
26964;DHT22;14521;48.148;-1.656;2023-04-25T12:15:57;19.90;80.50
26964;DHT22;14521;48.148;-1.656;2023-04-25T12:19:20;19.90;80.60
26964;DHT22;14521;48.148;-1.656;2023-04-25T12:22:45;20.00;80.70
26964;DHT22;14521;48.148;-1.656;2023-04-25T12:26:08;20.00;80.60
26964;DHT22;14521;48.148;-1.656;2023-04-25T12:29:32;19.90;80.50
26964;DHT22;14521;48.148;-1.656;2023-04-25T12:33:09;19.90;80.40
26964;DHT22;14521;48.148;-1.656;2023-04-25T12:36:32;19.90;81.20
26964;DHT22;14521;48.148;-1.656;2023-04-25T12:39:54;19.90;80.30
26964;DHT22;14521;48.148;-1.656;2023-04-25T12:43:17;20.00;80.40
26964;DHT22;14521;48.148;-1.656;2023-04-25T12:46:40;19.90;80.20
26964;DHT22;14521;48.148;-1.656;2023-04-25T12:50:03;19.90;80.20
26964;DHT22;14521;48.148;-1.656;2023-04-25T12:53:25;20.00;80.30
26964;DHT22;14521;48.148;-1.656;2023-04-25T12:56:47;20.00;80.10
26964;DHT22;14521;48.148;-1.656;2023-04-25T13:00:10;19.90;80.20
26964;DHT22;14521;48.148;-1.656;2023-04-25T13:03:36;20.00;80.10
26964;DHT22;14521;48.148;-1.656;2023-04-25T13:06:59;20.00;80.10
26964;DHT22;14521;48.148;-1.656;2023-04-25T13:10:22;20.00;79.90
26964;DHT22;14521;48.148;-1.656;2023-04-25T13:13:44;20.00;80.10
26964;DHT22;14521;48.148;-1.656;2023-04-25T13:17:06;20.00;80.00
26964;DHT22;14521;48.148;-1.656;2023-04-25T13:20:29;19.70;72.40
26964;DHT22;14521;48.148;-1.656;2023-04-25T13:23:51;19.60;77.50
26964;DHT22;14521;48.148;-1.656;2023-04-25T13:27:14;19.70;77.20
26964;DHT22;14521;48.148;-1.656;2023-04-25T13:30:36;19.70;76.50
26964;DHT22;14521;48.148;-1.656;2023-04-25T13:33:59;19.70;79.00
26964;DHT22;14521;48.148;-1.656;2023-04-25T13:37:21;19.80;79.10
26964;DHT22;14521;48.148;-1.656;2023-04-25T13:40:46;19.90;79.30
26964;DHT22;14521;48.148;-1.656;2023-04-25T13:44:08;20.00;79.60
26964;DHT22;14521;48.148;-1.656;2023-04-25T13:47:30;20.00;79.60
26964;DHT22;14521;48.148;-1.656;2023-04-25T13:50:53;20.00;79.40
26964;DHT22;14521;48.148;-1.656;2023-04-25T13:54:15;20.10;80.10
26964;DHT22;14521;48.148;-1.656;2023-04-25T13:57:37;20.10;79.50
26964;DHT22;14521;48.148;-1.656;2023-04-25T14:01:02;20.10;79.50
26964;DHT22;14521;48.148;-1.656;2023-04-25T14:04:25;20.10;79.50
26964;DHT22;14521;48.148;-1.656;2023-04-25T14:07:48;20.10;79.50
26964;DHT22;14521;48.148;-1.656;2023-04-25T14:11:10;20.10;79.40
26964;DHT22;14521;48.148;-1.656;2023-04-25T14:14:32;20.10;79.30
26964;DHT22;14521;48.148;-1.656;2023-04-25T14:17:55;20.10;79.30
26964;DHT22;14521;48.148;-1.656;2023-04-25T14:21:17;20.10;79.20
26964;DHT22;14521;48.148;-1.656;2023-04-25T14:24:39;20.10;79.80
26964;DHT22;14521;48.148;-1.656;2023-04-25T14:28:02;20.10;79.10
26964;DHT22;14521;48.148;-1.656;2023-04-25T14:31:24;20.10;79.30
26964;DHT22;14521;48.148;-1.656;2023-04-25T14:34:47;20.10;79.20
26964;DHT22;14521;48.148;-1.656;2023-04-25T14:38:09;20.10;79.20
26964;DHT22;14521;48.148;-1.656;2023-04-25T14:41:31;20.00;79.30
26964;DHT22;14521;48.148;-1.656;2023-04-25T14:44:54;20.10;79.30
26964;DHT22;14521;48.148;-1.656;2023-04-25T14:48:17;20.10;78.90
26964;DHT22;14521;48.148;-1.656;2023-04-25T14:51:41;20.10;79.10
26964;DHT22;14521;48.148;-1.656;2023-04-25T14:55:04;20.10;79.30
26964;DHT22;14521;48.148;-1.656;2023-04-25T14:58:29;20.10;79.10
26964;DHT22;14521;48.148;-1.656;2023-04-25T15:01:52;20.10;79.10
26964;DHT22;14521;48.148;-1.656;2023-04-25T15:05:15;20.10;79.20
26964;DHT22;14521;48.148;-1.656;2023-04-25T15:08:38;20.20;79.00
26964;DHT22;14521;48.148;-1.656;2023-04-25T15:12:00;20.20;78.70
26964;DHT22;14521;48.148;-1.656;2023-04-25T15:15:22;20.30;78.20
26964;DHT22;14521;48.148;-1.656;2023-04-25T15:18:48;20.30;78.10
26964;DHT22;14521;48.148;-1.656;2023-04-25T15:22:10;20.20;78.00
26964;DHT22;14521;48.148;-1.656;2023-04-25T15:25:32;20.20;77.60
26964;DHT22;14521;48.148;-1.656;2023-04-25T15:28:55;20.30;77.90
26964;DHT22;14521;48.148;-1.656;2023-04-25T15:32:17;20.20;77.60
26964;DHT22;14521;48.148;-1.656;2023-04-25T15:35:39;20.20;77.80
26964;DHT22;14521;48.148;-1.656;2023-04-25T15:39:02;20.20;78.20
26964;DHT22;14521;48.148;-1.656;2023-04-25T15:42:24;20.20;78.20
26964;DHT22;14521;48.148;-1.656;2023-04-25T15:45:47;20.20;78.10
26964;DHT22;14521;48.148;-1.656;2023-04-25T15:49:09;20.20;78.10
26964;DHT22;14521;48.148;-1.656;2023-04-25T15:52:32;20.20;77.80
26964;DHT22;14521;48.148;-1.656;2023-04-25T15:55:55;20.20;78.10
26964;DHT22;14521;48.148;-1.656;2023-04-25T15:59:17;20.10;78.80
26964;DHT22;14521;48.148;-1.656;2023-04-25T16:02:40;20.10;78.70
26964;DHT22;14521;48.148;-1.656;2023-04-25T16:06:03;20.00;78.80
26964;DHT22;14521;48.148;-1.656;2023-04-25T16:09:26;20.10;79.00
26964;DHT22;14521;48.148;-1.656;2023-04-25T16:12:49;20.10;79.20
26964;DHT22;14521;48.148;-1.656;2023-04-25T16:16:12;20.10;79.10
26964;DHT22;14521;48.148;-1.656;2023-04-25T16:19:14;20.10;78.90
26964;DHT22;14521;48.148;-1.656;2023-04-25T16:22:17;20.10;79.00
26964;DHT22;14521;48.148;-1.656;2023-04-25T16:25:19;20.00;78.90
26964;DHT22;14521;48.148;-1.656;2023-04-25T16:28:23;20.00;78.90
26964;DHT22;14521;48.148;-1.656;2023-04-25T16:31:25;20.00;79.10
26964;DHT22;14521;48.148;-1.656;2023-04-25T16:34:27;20.00;79.30
26964;DHT22;14521;48.148;-1.656;2023-04-25T16:37:29;20.00;79.30
26964;DHT22;14521;48.148;-1.656;2023-04-25T16:40:31;20.00;79.30
26964;DHT22;14521;48.148;-1.656;2023-04-25T16:43:33;20.00;79.30
26964;DHT22;14521;48.148;-1.656;2023-04-25T16:46:36;20.00;79.50
26964;DHT22;14521;48.148;-1.656;2023-04-25T16:49:38;20.00;79.60
26964;DHT22;14521;48.148;-1.656;2023-04-25T16:52:41;20.00;79.70
26964;DHT22;14521;48.148;-1.656;2023-04-25T16:55:45;20.00;79.70
26964;DHT22;14521;48.148;-1.656;2023-04-25T16:58:48;20.00;79.60
26964;DHT22;14521;48.148;-1.656;2023-04-25T17:01:50;20.00;79.80
26964;DHT22;14521;48.148;-1.656;2023-04-25T17:04:53;20.00;79.60
26964;DHT22;14521;48.148;-1.656;2023-04-25T17:07:55;20.00;79.70
26964;DHT22;14521;48.148;-1.656;2023-04-25T17:10:57;20.00;80.10
26964;DHT22;14521;48.148;-1.656;2023-04-25T17:14:19;20.00;80.30
26964;DHT22;14521;48.148;-1.656;2023-04-25T17:17:21;20.00;80.40
26964;DHT22;14521;48.148;-1.656;2023-04-25T17:20:23;20.00;81.10
26964;DHT22;14521;48.148;-1.656;2023-04-25T17:23:26;20.00;80.40
26964;DHT22;14521;48.148;-1.656;2023-04-25T17:26:28;20.00;80.30
26964;DHT22;14521;48.148;-1.656;2023-04-25T17:29:30;20.00;80.60
26964;DHT22;14521;48.148;-1.656;2023-04-25T17:32:33;20.00;80.50
26964;DHT22;14521;48.148;-1.656;2023-04-25T17:35:35;20.00;80.60
26964;DHT22;14521;48.148;-1.656;2023-04-25T17:38:38;19.90;80.60
26964;DHT22;14521;48.148;-1.656;2023-04-25T17:41:40;20.00;80.60
26964;DHT22;14521;48.148;-1.656;2023-04-25T17:44:42;20.00;80.60
26964;DHT22;14521;48.148;-1.656;2023-04-25T17:47:45;20.00;80.60
26964;DHT22;14521;48.148;-1.656;2023-04-25T17:50:47;20.00;80.70
26964;DHT22;14521;48.148;-1.656;2023-04-25T17:54:08;20.00;80.80
26964;DHT22;14521;48.148;-1.656;2023-04-25T17:57:31;20.00;81.50
26964;DHT22;14521;48.148;-1.656;2023-04-25T18:00:53;20.00;81.00
26964;DHT22;14521;48.148;-1.656;2023-04-25T18:04:15;20.10;81.40
26964;DHT22;14521;48.148;-1.656;2023-04-25T18:07:39;20.10;81.30
26964;DHT22;14521;48.148;-1.656;2023-04-25T18:11:02;20.10;81.60
26964;DHT22;14521;48.148;-1.656;2023-04-25T18:14:25;20.10;82.40
26964;DHT22;14521;48.148;-1.656;2023-04-25T18:17:48;20.10;82.50
26964;DHT22;14521;48.148;-1.656;2023-04-25T18:21:10;20.20;82.80
26964;DHT22;14521;48.148;-1.656;2023-04-25T18:24:32;20.20;83.00
26964;DHT22;14521;48.148;-1.656;2023-04-25T18:27:55;20.20;83.60
26964;DHT22;14521;48.148;-1.656;2023-04-25T18:31:18;20.30;82.40
26964;DHT22;14521;48.148;-1.656;2023-04-25T18:34:45;20.30;84.60
26964;DHT22;14521;48.148;-1.656;2023-04-25T18:38:10;20.40;84.70
26964;DHT22;14521;48.148;-1.656;2023-04-25T18:41:37;20.40;84.80
26964;DHT22;14521;48.148;-1.656;2023-04-25T18:45:19;20.40;85.30
26964;DHT22;14521;48.148;-1.656;2023-04-25T18:48:42;20.40;86.10
26964;DHT22;14521;48.148;-1.656;2023-04-25T18:52:05;20.50;86.80
26964;DHT22;14521;48.148;-1.656;2023-04-25T18:55:32;20.50;86.60
26964;DHT22;14521;48.148;-1.656;2023-04-25T18:58:55;20.50;86.10
26964;DHT22;14521;48.148;-1.656;2023-04-25T19:02:18;20.50;87.20
26964;DHT22;14521;48.148;-1.656;2023-04-25T19:05:41;20.50;85.70
26964;DHT22;14521;48.148;-1.656;2023-04-25T19:09:03;20.60;86.50
26964;DHT22;14521;48.148;-1.656;2023-04-25T19:12:25;20.60;84.80
26964;DHT22;14521;48.148;-1.656;2023-04-25T19:15:48;20.60;82.90
26964;DHT22;14521;48.148;-1.656;2023-04-25T19:19:10;20.50;83.40
26964;DHT22;14521;48.148;-1.656;2023-04-25T19:22:32;20.50;84.10
26964;DHT22;14521;48.148;-1.656;2023-04-25T19:25:55;20.60;83.40
26964;DHT22;14521;48.148;-1.656;2023-04-25T19:29:17;20.50;84.20
26964;DHT22;14521;48.148;-1.656;2023-04-25T19:32:39;20.50;83.60
26964;DHT22;14521;48.148;-1.656;2023-04-25T19:36:02;20.50;83.90
26964;DHT22;14521;48.148;-1.656;2023-04-25T19:39:25;20.50;83.20
26964;DHT22;14521;48.148;-1.656;2023-04-25T19:42:47;20.50;82.80
26964;DHT22;14521;48.148;-1.656;2023-04-25T19:46:10;20.50;85.20
26964;DHT22;14521;48.148;-1.656;2023-04-25T19:49:32;20.50;83.50
26964;DHT22;14521;48.148;-1.656;2023-04-25T19:52:55;20.40;83.70
26964;DHT22;14521;48.148;-1.656;2023-04-25T19:56:17;20.40;84.80
26964;DHT22;14521;48.148;-1.656;2023-04-25T19:59:40;20.30;84.60
26964;DHT22;14521;48.148;-1.656;2023-04-25T20:03:02;20.30;84.80
26964;DHT22;14521;48.148;-1.656;2023-04-25T20:06:25;20.30;84.60
26964;DHT22;14521;48.148;-1.656;2023-04-25T20:09:48;20.30;84.60
26964;DHT22;14521;48.148;-1.656;2023-04-25T20:13:11;20.20;84.60
26964;DHT22;14521;48.148;-1.656;2023-04-25T20:16:33;20.20;84.60
26964;DHT22;14521;48.148;-1.656;2023-04-25T20:19:55;20.20;84.30
26964;DHT22;14521;48.148;-1.656;2023-04-25T20:23:18;20.20;83.30
26964;DHT22;14521;48.148;-1.656;2023-04-25T20:26:40;20.20;83.50
26964;DHT22;14521;48.148;-1.656;2023-04-25T20:30:05;20.20;83.80
26964;DHT22;14521;48.148;-1.656;2023-04-25T20:33:29;20.30;83.30
26964;DHT22;14521;48.148;-1.656;2023-04-25T20:36:51;20.30;83.30
26964;DHT22;14521;48.148;-1.656;2023-04-25T20:40:13;20.20;83.40
26964;DHT22;14521;48.148;-1.656;2023-04-25T20:43:36;20.20;83.20
26964;DHT22;14521;48.148;-1.656;2023-04-25T20:47:01;20.20;83.20
26964;DHT22;14521;48.148;-1.656;2023-04-25T20:50:23;20.20;83.00
26964;DHT22;14521;48.148;-1.656;2023-04-25T20:53:46;20.20;83.10
26964;DHT22;14521;48.148;-1.656;2023-04-25T20:57:08;20.20;83.00
26964;DHT22;14521;48.148;-1.656;2023-04-25T21:00:31;20.10;83.00
26964;DHT22;14521;48.148;-1.656;2023-04-25T21:03:53;20.10;82.80
26964;DHT22;14521;48.148;-1.656;2023-04-25T21:07:16;20.10;82.90